sensor_id;sensor_type;location;lat;lon;timestamp;temperature;humidity
19781;DHT22;10050;55.492;13.506;2023-11-21T00:01:58;4.30;99.90
19781;DHT22;10050;55.492;13.506;2023-11-21T00:04:24;4.20;99.90
19781;DHT22;10050;55.492;13.506;2023-11-21T00:06:50;4.20;99.90
19781;DHT22;10050;55.492;13.506;2023-11-21T00:09:15;4.10;99.90
19781;DHT22;10050;55.492;13.506;2023-11-21T00:11:43;4.10;99.90
19781;DHT22;10050;55.492;13.506;2023-11-21T00:14:10;4.10;99.90
19781;DHT22;10050;55.492;13.506;2023-11-21T00:16:36;4.10;99.90
19781;DHT22;10050;55.492;13.506;2023-11-21T00:19:02;4.10;99.90
19781;DHT22;10050;55.492;13.506;2023-11-21T00:21:27;4.00;99.90
19781;DHT22;10050;55.492;13.506;2023-11-21T00:23:53;4.10;99.90
19781;DHT22;10050;55.492;13.506;2023-11-21T00:26:18;4.10;99.90
19781;DHT22;10050;55.492;13.506;2023-11-21T00:28:44;4.10;99.90
19781;DHT22;10050;55.492;13.506;2023-11-21T00:31:10;4.00;99.90
19781;DHT22;10050;55.492;13.506;2023-11-21T00:33:36;4.00;99.90
19781;DHT22;10050;55.492;13.506;2023-11-21T00:36:02;4.00;99.90
19781;DHT22;10050;55.492;13.506;2023-11-21T00:38:28;4.10;99.90
19781;DHT22;10050;55.492;13.506;2023-11-21T00:40:53;4.20;99.90
19781;DHT22;10050;55.492;13.506;2023-11-21T00:43:22;4.10;99.90
19781;DHT22;10050;55.492;13.506;2023-11-21T00:45:48;4.10;99.90
19781;DHT22;10050;55.492;13.506;2023-11-21T00:48:14;4.00;99.90
19781;DHT22;10050;55.492;13.506;2023-11-21T00:50:40;4.00;99.90
19781;DHT22;10050;55.492;13.506;2023-11-21T00:53:06;4.00;99.90
19781;DHT22;10050;55.492;13.506;2023-11-21T00:55:33;4.10;99.90
19781;DHT22;10050;55.492;13.506;2023-11-21T00:57:58;4.10;99.90
19781;DHT22;10050;55.492;13.506;2023-11-21T01:00:25;4.20;99.90
19781;DHT22;10050;55.492;13.506;2023-11-21T01:02:51;4.20;99.90
19781;DHT22;10050;55.492;13.506;2023-11-21T01:05:16;4.20;99.90
19781;DHT22;10050;55.492;13.506;2023-11-21T01:07:42;4.20;99.90
19781;DHT22;10050;55.492;13.506;2023-11-21T01:10:08;4.20;99.90
19781;DHT22;10050;55.492;13.506;2023-11-21T01:12:36;4.20;99.90
19781;DHT22;10050;55.492;13.506;2023-11-21T01:15:06;4.30;99.90
19781;DHT22;10050;55.492;13.506;2023-11-21T01:17:37;4.30;99.90
19781;DHT22;10050;55.492;13.506;2023-11-21T01:20:04;4.30;99.90
19781;DHT22;10050;55.492;13.506;2023-11-21T01:22:37;4.20;99.90
19781;DHT22;10050;55.492;13.506;2023-11-21T01:25:02;4.30;99.90
19781;DHT22;10050;55.492;13.506;2023-11-21T01:27:29;4.30;99.90
19781;DHT22;10050;55.492;13.506;2023-11-21T01:29:55;4.30;99.90
19781;DHT22;10050;55.492;13.506;2023-11-21T01:32:21;4.30;99.90
19781;DHT22;10050;55.492;13.506;2023-11-21T01:34:50;4.30;99.90
19781;DHT22;10050;55.492;13.506;2023-11-21T01:37:15;4.30;99.90
19781;DHT22;10050;55.492;13.506;2023-11-21T01:39:43;4.40;99.90
19781;DHT22;10050;55.492;13.506;2023-11-21T01:42:09;4.30;99.90
19781;DHT22;10050;55.492;13.506;2023-11-21T01:44:35;4.30;99.90
19781;DHT22;10050;55.492;13.506;2023-11-21T01:47:01;4.40;99.90
19781;DHT22;10050;55.492;13.506;2023-11-21T01:49:34;4.40;99.90
19781;DHT22;10050;55.492;13.506;2023-11-21T01:52:00;4.40;99.90
19781;DHT22;10050;55.492;13.506;2023-11-21T01:54:26;4.40;99.90
19781;DHT22;10050;55.492;13.506;2023-11-21T01:56:52;4.40;99.90
19781;DHT22;10050;55.492;13.506;2023-11-21T01:59:21;4.40;99.90
19781;DHT22;10050;55.492;13.506;2023-11-21T02:01:50;4.40;99.90
19781;DHT22;10050;55.492;13.506;2023-11-21T02:04:16;4.40;99.90
19781;DHT22;10050;55.492;13.506;2023-11-21T02:06:41;4.50;99.90
19781;DHT22;10050;55.492;13.506;2023-11-21T02:09:07;4.40;99.90
19781;DHT22;10050;55.492;13.506;2023-11-21T02:11:34;4.40;99.90
19781;DHT22;10050;55.492;13.506;2023-11-21T02:14:00;4.40;99.90
19781;DHT22;10050;55.492;13.506;2023-11-21T02:16:26;4.40;99.90
19781;DHT22;10050;55.492;13.506;2023-11-21T02:18:52;4.40;99.90
19781;DHT22;10050;55.492;13.506;2023-11-21T02:21:18;4.40;99.90
19781;DHT22;10050;55.492;13.506;2023-11-21T02:23:44;4.40;99.90
19781;DHT22;10050;55.492;13.506;2023-11-21T02:26:12;4.40;99.90
19781;DHT22;10050;55.492;13.506;2023-11-21T02:28:38;4.40;99.90
19781;DHT22;10050;55.492;13.506;2023-11-21T02:31:04;4.50;99.90
19781;DHT22;10050;55.492;13.506;2023-11-21T02:33:31;4.40;99.90
19781;DHT22;10050;55.492;13.506;2023-11-21T02:36:02;4.40;99.90
19781;DHT22;10050;55.492;13.506;2023-11-21T02:38:28;4.50;99.90
19781;DHT22;10050;55.492;13.506;2023-11-21T02:40:54;4.50;99.90
19781;DHT22;10050;55.492;13.506;2023-11-21T02:43:20;4.60;99.90
19781;DHT22;10050;55.492;13.506;2023-11-21T02:45:45;4.50;99.90
19781;DHT22;10050;55.492;13.506;2023-11-21T02:48:11;4.50;99.90
19781;DHT22;10050;55.492;13.506;2023-11-21T02:50:36;4.50;99.90
19781;DHT22;10050;55.492;13.506;2023-11-21T02:53:03;4.50;99.90
19781;DHT22;10050;55.492;13.506;2023-11-21T02:55:31;4.40;99.90
19781;DHT22;10050;55.492;13.506;2023-11-21T02:58:00;4.50;99.90
19781;DHT22;10050;55.492;13.506;2023-11-21T03:00:26;4.50;99.90
19781;DHT22;10050;55.492;13.506;2023-11-21T03:02:51;4.50;99.90
19781;DHT22;10050;55.492;13.506;2023-11-21T03:05:17;4.40;99.90
19781;DHT22;10050;55.492;13.506;2023-11-21T03:07:42;4.40;99.90
19781;DHT22;10050;55.492;13.506;2023-11-21T03:10:08;4.50;99.90
19781;DHT22;10050;55.492;13.506;2023-11-21T03:12:34;4.50;99.90
19781;DHT22;10050;55.492;13.506;2023-11-21T03:15:00;4.50;99.90
19781;DHT22;10050;55.492;13.506;2023-11-21T03:17:27;4.40;99.90
19781;DHT22;10050;55.492;13.506;2023-11-21T03:19:54;4.40;99.90
19781;DHT22;10050;55.492;13.506;2023-11-21T03:22:20;4.40;99.90
19781;DHT22;10050;55.492;13.506;2023-11-21T03:24:46;4.40;99.90
19781;DHT22;10050;55.492;13.506;2023-11-21T03:27:11;4.40;99.90
19781;DHT22;10050;55.492;13.506;2023-11-21T03:29:37;4.40;99.90
19781;DHT22;10050;55.492;13.506;2023-11-21T03:32:03;4.40;99.90
19781;DHT22;10050;55.492;13.506;2023-11-21T03:34:29;4.50;99.90
19781;DHT22;10050;55.492;13.506;2023-11-21T03:36:55;4.40;99.90
19781;DHT22;10050;55.492;13.506;2023-11-21T03:39:21;4.40;99.90
19781;DHT22;10050;55.492;13.506;2023-11-21T03:41:47;4.50;99.90
19781;DHT22;10050;55.492;13.506;2023-11-21T03:44:14;4.50;99.90
19781;DHT22;10050;55.492;13.506;2023-11-21T03:46:40;4.50;99.90
19781;DHT22;10050;55.492;13.506;2023-11-21T03:49:06;4.50;99.90
19781;DHT22;10050;55.492;13.506;2023-11-21T03:51:33;4.50;99.90
19781;DHT22;10050;55.492;13.506;2023-11-21T03:53:59;4.60;99.90
19781;DHT22;10050;55.492;13.506;2023-11-21T03:56:24;4.50;99.90
19781;DHT22;10050;55.492;13.506;2023-11-21T03:58:50;4.60;99.90
19781;DHT22;10050;55.492;13.506;2023-11-21T04:01:22;4.50;99.90
19781;DHT22;10050;55.492;13.506;2023-11-21T04:03:49;4.50;99.90
19781;DHT22;10050;55.492;13.506;2023-11-21T04:06:15;4.50;99.90
19781;DHT22;10050;55.492;13.506;2023-11-21T04:08:45;4.60;99.90
19781;DHT22;10050;55.492;13.506;2023-11-21T04:11:11;4.60;99.90
19781;DHT22;10050;55.492;13.506;2023-11-21T04:13:38;4.60;99.90
19781;DHT22;10050;55.492;13.506;2023-11-21T04:16:05;4.60;99.90
19781;DHT22;10050;55.492;13.506;2023-11-21T04:18:31;4.60;99.90
19781;DHT22;10050;55.492;13.506;2023-11-21T04:20:57;4.60;99.90
19781;DHT22;10050;55.492;13.506;2023-11-21T04:23:22;4.60;99.90
19781;DHT22;10050;55.492;13.506;2023-11-21T04:25:48;4.60;99.90
19781;DHT22;10050;55.492;13.506;2023-11-21T04:28:13;4.60;99.90
19781;DHT22;10050;55.492;13.506;2023-11-21T04:30:39;4.60;99.90
19781;DHT22;10050;55.492;13.506;2023-11-21T04:33:05;4.60;99.90
19781;DHT22;10050;55.492;13.506;2023-11-21T04:35:30;4.60;99.90
19781;DHT22;10050;55.492;13.506;2023-11-21T04:37:56;4.60;99.90
19781;DHT22;10050;55.492;13.506;2023-11-21T04:40:22;4.60;99.90
19781;DHT22;10050;55.492;13.506;2023-11-21T04:42:48;4.60;99.90
19781;DHT22;10050;55.492;13.506;2023-11-21T04:45:14;4.60;99.90
19781;DHT22;10050;55.492;13.506;2023-11-21T04:47:39;4.60;99.90
19781;DHT22;10050;55.492;13.506;2023-11-21T04:50:05;4.60;99.90
19781;DHT22;10050;55.492;13.506;2023-11-21T04:52:31;4.60;99.90
19781;DHT22;10050;55.492;13.506;2023-11-21T04:54:58;4.50;99.90
19781;DHT22;10050;55.492;13.506;2023-11-21T04:57:26;4.40;99.90
19781;DHT22;10050;55.492;13.506;2023-11-21T04:59:53;4.20;99.90
19781;DHT22;10050;55.492;13.506;2023-11-21T05:02:19;4.10;99.90
19781;DHT22;10050;55.492;13.506;2023-11-21T05:04:46;4.00;99.90
19781;DHT22;10050;55.492;13.506;2023-11-21T05:07:12;4.00;99.90
19781;DHT22;10050;55.492;13.506;2023-11-21T05:09:42;3.90;99.90
19781;DHT22;10050;55.492;13.506;2023-11-21T05:12:09;3.90;99.90
19781;DHT22;10050;55.492;13.506;2023-11-21T05:14:35;3.90;99.90
19781;DHT22;10050;55.492;13.506;2023-11-21T05:17:01;3.90;99.90
19781;DHT22;10050;55.492;13.506;2023-11-21T05:19:26;3.90;99.90
19781;DHT22;10050;55.492;13.506;2023-11-21T05:21:52;4.00;99.90
19781;DHT22;10050;55.492;13.506;2023-11-21T05:24:18;4.00;99.90
19781;DHT22;10050;55.492;13.506;2023-11-21T05:26:43;4.00;99.90
19781;DHT22;10050;55.492;13.506;2023-11-21T05:29:09;4.00;99.90
19781;DHT22;10050;55.492;13.506;2023-11-21T05:31:36;4.00;99.90
19781;DHT22;10050;55.492;13.506;2023-11-21T05:34:03;4.00;99.90
19781;DHT22;10050;55.492;13.506;2023-11-21T05:36:28;4.10;99.90
19781;DHT22;10050;55.492;13.506;2023-11-21T05:38:54;4.10;99.90
19781;DHT22;10050;55.492;13.506;2023-11-21T05:41:19;4.10;99.90
19781;DHT22;10050;55.492;13.506;2023-11-21T05:43:45;4.10;99.90
19781;DHT22;10050;55.492;13.506;2023-11-21T05:46:11;4.10;99.90
19781;DHT22;10050;55.492;13.506;2023-11-21T05:48:36;4.10;99.90
19781;DHT22;10050;55.492;13.506;2023-11-21T05:51:04;4.10;99.90
19781;DHT22;10050;55.492;13.506;2023-11-21T05:53:30;4.10;99.90
19781;DHT22;10050;55.492;13.506;2023-11-21T05:55:56;4.10;99.90
19781;DHT22;10050;55.492;13.506;2023-11-21T05:58:22;4.20;99.90
19781;DHT22;10050;55.492;13.506;2023-11-21T06:00:47;4.20;99.90
19781;DHT22;10050;55.492;13.506;2023-11-21T06:03:13;4.20;99.90
19781;DHT22;10050;55.492;13.506;2023-11-21T06:05:39;4.20;99.90
19781;DHT22;10050;55.492;13.506;2023-11-21T06:08:04;4.20;99.90
19781;DHT22;10050;55.492;13.506;2023-11-21T06:10:32;4.20;99.90
19781;DHT22;10050;55.492;13.506;2023-11-21T06:12:57;4.20;99.90
19781;DHT22;10050;55.492;13.506;2023-11-21T06:15:23;4.10;99.90
19781;DHT22;10050;55.492;13.506;2023-11-21T06:17:49;4.20;99.90
19781;DHT22;10050;55.492;13.506;2023-11-21T06:20:18;4.10;99.90
19781;DHT22;10050;55.492;13.506;2023-11-21T06:22:46;4.20;99.90
19781;DHT22;10050;55.492;13.506;2023-11-21T06:25:12;4.20;99.90
19781;DHT22;10050;55.492;13.506;2023-11-21T06:27:40;4.20;99.90
19781;DHT22;10050;55.492;13.506;2023-11-21T06:30:07;4.10;99.90
19781;DHT22;10050;55.492;13.506;2023-11-21T06:32:34;4.10;99.90
19781;DHT22;10050;55.492;13.506;2023-11-21T06:35:04;4.10;99.90
19781;DHT22;10050;55.492;13.506;2023-11-21T06:37:31;4.10;99.90
19781;DHT22;10050;55.492;13.506;2023-11-21T06:39:58;4.10;99.90
19781;DHT22;10050;55.492;13.506;2023-11-21T06:42:25;4.10;99.90
19781;DHT22;10050;55.492;13.506;2023-11-21T06:44:51;4.10;99.90
19781;DHT22;10050;55.492;13.506;2023-11-21T06:47:22;4.10;99.90
19781;DHT22;10050;55.492;13.506;2023-11-21T06:49:50;4.10;99.90
19781;DHT22;10050;55.492;13.506;2023-11-21T06:52:16;4.10;99.90
19781;DHT22;10050;55.492;13.506;2023-11-21T06:54:42;4.10;99.90
19781;DHT22;10050;55.492;13.506;2023-11-21T06:57:08;4.10;99.90
19781;DHT22;10050;55.492;13.506;2023-11-21T06:59:37;4.10;99.90
19781;DHT22;10050;55.492;13.506;2023-11-21T07:02:03;4.10;99.90
19781;DHT22;10050;55.492;13.506;2023-11-21T07:04:32;4.10;99.90
19781;DHT22;10050;55.492;13.506;2023-11-21T07:06:58;4.20;99.90
19781;DHT22;10050;55.492;13.506;2023-11-21T07:09:23;4.20;99.90
19781;DHT22;10050;55.492;13.506;2023-11-21T07:11:53;4.20;99.90
19781;DHT22;10050;55.492;13.506;2023-11-21T07:14:19;4.20;99.90
19781;DHT22;10050;55.492;13.506;2023-11-21T07:16:46;4.20;99.90
19781;DHT22;10050;55.492;13.506;2023-11-21T07:19:12;4.20;99.90
19781;DHT22;10050;55.492;13.506;2023-11-21T07:21:38;4.20;99.90
19781;DHT22;10050;55.492;13.506;2023-11-21T07:24:05;4.20;99.90
19781;DHT22;10050;55.492;13.506;2023-11-21T07:26:35;4.20;99.90
19781;DHT22;10050;55.492;13.506;2023-11-21T07:29:01;4.20;99.90
19781;DHT22;10050;55.492;13.506;2023-11-21T07:31:28;4.20;99.90
19781;DHT22;10050;55.492;13.506;2023-11-21T07:33:54;4.20;99.90
19781;DHT22;10050;55.492;13.506;2023-11-21T07:36:23;4.20;99.90
19781;DHT22;10050;55.492;13.506;2023-11-21T07:38:49;4.20;99.90
19781;DHT22;10050;55.492;13.506;2023-11-21T07:41:15;4.20;99.90
19781;DHT22;10050;55.492;13.506;2023-11-21T07:43:44;4.20;99.90
19781;DHT22;10050;55.492;13.506;2023-11-21T07:46:10;4.30;99.90
19781;DHT22;10050;55.492;13.506;2023-11-21T07:48:38;4.30;99.90
19781;DHT22;10050;55.492;13.506;2023-11-21T07:51:04;4.20;99.90
19781;DHT22;10050;55.492;13.506;2023-11-21T07:53:30;4.20;99.90
19781;DHT22;10050;55.492;13.506;2023-11-21T07:56:02;4.20;99.90
19781;DHT22;10050;55.492;13.506;2023-11-21T07:58:28;4.10;99.90
19781;DHT22;10050;55.492;13.506;2023-11-21T08:00:54;4.00;99.90
19781;DHT22;10050;55.492;13.506;2023-11-21T08:03:20;4.00;99.90
19781;DHT22;10050;55.492;13.506;2023-11-21T08:05:46;3.90;99.90
19781;DHT22;10050;55.492;13.506;2023-11-21T08:08:12;4.00;99.90
19781;DHT22;10050;55.492;13.506;2023-11-21T08:10:37;3.90;99.90
19781;DHT22;10050;55.492;13.506;2023-11-21T08:13:04;3.90;99.90
19781;DHT22;10050;55.492;13.506;2023-11-21T08:15:30;3.90;99.90
19781;DHT22;10050;55.492;13.506;2023-11-21T08:17:57;3.80;99.90
19781;DHT22;10050;55.492;13.506;2023-11-21T08:20:24;3.80;99.90
19781;DHT22;10050;55.492;13.506;2023-11-21T08:22:50;3.80;99.90
19781;DHT22;10050;55.492;13.506;2023-11-21T08:25:17;3.80;99.90
19781;DHT22;10050;55.492;13.506;2023-11-21T08:27:45;3.80;99.90
19781;DHT22;10050;55.492;13.506;2023-11-21T08:30:11;3.80;99.90
19781;DHT22;10050;55.492;13.506;2023-11-21T08:32:38;3.80;99.90
19781;DHT22;10050;55.492;13.506;2023-11-21T08:35:03;3.80;99.90
19781;DHT22;10050;55.492;13.506;2023-11-21T08:37:30;3.80;99.90
19781;DHT22;10050;55.492;13.506;2023-11-21T08:39:58;3.80;99.90
19781;DHT22;10050;55.492;13.506;2023-11-21T08:42:27;3.80;99.90
19781;DHT22;10050;55.492;13.506;2023-11-21T08:44:58;3.90;99.90
19781;DHT22;10050;55.492;13.506;2023-11-21T08:47:24;3.80;99.90
19781;DHT22;10050;55.492;13.506;2023-11-21T08:49:50;3.80;99.90
19781;DHT22;10050;55.492;13.506;2023-11-21T08:52:18;3.80;99.90
19781;DHT22;10050;55.492;13.506;2023-11-21T08:54:50;3.80;99.90
19781;DHT22;10050;55.492;13.506;2023-11-21T08:57:22;3.70;99.90
19781;DHT22;10050;55.492;13.506;2023-11-21T08:59:48;3.70;99.90
19781;DHT22;10050;55.492;13.506;2023-11-21T09:02:14;3.70;99.90
19781;DHT22;10050;55.492;13.506;2023-11-21T09:04:39;3.70;99.90
19781;DHT22;10050;55.492;13.506;2023-11-21T09:07:05;3.70;99.90
19781;DHT22;10050;55.492;13.506;2023-11-21T09:09:30;3.70;99.90
19781;DHT22;10050;55.492;13.506;2023-11-21T09:11:56;3.70;99.90
19781;DHT22;10050;55.492;13.506;2023-11-21T09:14:22;3.70;99.90
19781;DHT22;10050;55.492;13.506;2023-11-21T09:16:48;3.70;99.90
19781;DHT22;10050;55.492;13.506;2023-11-21T09:19:16;3.70;99.90
19781;DHT22;10050;55.492;13.506;2023-11-21T09:21:41;3.60;99.90
19781;DHT22;10050;55.492;13.506;2023-11-21T09:24:07;3.60;99.90
19781;DHT22;10050;55.492;13.506;2023-11-21T09:26:34;3.70;99.90
19781;DHT22;10050;55.492;13.506;2023-11-21T09:29:00;3.60;99.90
19781;DHT22;10050;55.492;13.506;2023-11-21T09:31:27;3.60;99.90
19781;DHT22;10050;55.492;13.506;2023-11-21T09:33:53;3.60;99.90
19781;DHT22;10050;55.492;13.506;2023-11-21T09:36:18;3.60;99.90
19781;DHT22;10050;55.492;13.506;2023-11-21T09:38:44;3.60;99.90
19781;DHT22;10050;55.492;13.506;2023-11-21T09:41:21;3.60;99.90
19781;DHT22;10050;55.492;13.506;2023-11-21T09:43:52;3.60;99.90
19781;DHT22;10050;55.492;13.506;2023-11-21T09:46:21;3.60;99.90
19781;DHT22;10050;55.492;13.506;2023-11-21T09:48:50;3.60;99.90
19781;DHT22;10050;55.492;13.506;2023-11-21T09:51:19;3.60;99.90
19781;DHT22;10050;55.492;13.506;2023-11-21T09:53:48;3.60;99.90
19781;DHT22;10050;55.492;13.506;2023-11-21T09:56:15;3.70;99.90
19781;DHT22;10050;55.492;13.506;2023-11-21T09:58:44;3.70;99.90
19781;DHT22;10050;55.492;13.506;2023-11-21T10:01:11;3.70;99.90
19781;DHT22;10050;55.492;13.506;2023-11-21T10:03:39;3.80;99.90
19781;DHT22;10050;55.492;13.506;2023-11-21T10:06:08;3.80;99.90
19781;DHT22;10050;55.492;13.506;2023-11-21T10:08:34;3.80;99.90
19781;DHT22;10050;55.492;13.506;2023-11-21T10:11:02;3.80;99.90
19781;DHT22;10050;55.492;13.506;2023-11-21T10:13:29;3.80;99.90
19781;DHT22;10050;55.492;13.506;2023-11-21T10:15:56;3.80;99.90
19781;DHT22;10050;55.492;13.506;2023-11-21T10:18:23;3.80;99.90
19781;DHT22;10050;55.492;13.506;2023-11-21T10:20:50;3.80;99.90
19781;DHT22;10050;55.492;13.506;2023-11-21T10:23:20;3.70;99.90
19781;DHT22;10050;55.492;13.506;2023-11-21T10:25:47;3.70;99.90
19781;DHT22;10050;55.492;13.506;2023-11-21T10:28:12;3.80;99.90
19781;DHT22;10050;55.492;13.506;2023-11-21T10:30:38;3.80;99.90
19781;DHT22;10050;55.492;13.506;2023-11-21T10:33:06;3.70;99.90
19781;DHT22;10050;55.492;13.506;2023-11-21T10:35:45;3.80;99.90
19781;DHT22;10050;55.492;13.506;2023-11-21T10:38:16;3.80;99.90
19781;DHT22;10050;55.492;13.506;2023-11-21T10:40:43;3.80;99.90
19781;DHT22;10050;55.492;13.506;2023-11-21T10:43:10;3.80;99.90
19781;DHT22;10050;55.492;13.506;2023-11-21T10:45:37;3.80;99.90
19781;DHT22;10050;55.492;13.506;2023-11-21T10:48:07;3.80;99.90
19781;DHT22;10050;55.492;13.506;2023-11-21T10:50:43;3.90;99.90
19781;DHT22;10050;55.492;13.506;2023-11-21T10:53:09;4.00;99.90
19781;DHT22;10050;55.492;13.506;2023-11-21T10:55:35;3.90;99.90
19781;DHT22;10050;55.492;13.506;2023-11-21T10:58:02;3.80;99.90
19781;DHT22;10050;55.492;13.506;2023-11-21T11:00:30;3.80;99.90
19781;DHT22;10050;55.492;13.506;2023-11-21T11:02:56;3.80;99.90
19781;DHT22;10050;55.492;13.506;2023-11-21T11:05:24;3.80;99.90
19781;DHT22;10050;55.492;13.506;2023-11-21T11:07:54;3.80;99.90
19781;DHT22;10050;55.492;13.506;2023-11-21T11:10:25;3.80;99.90
19781;DHT22;10050;55.492;13.506;2023-11-21T11:12:55;3.80;99.90
19781;DHT22;10050;55.492;13.506;2023-11-21T11:15:23;3.80;99.90
19781;DHT22;10050;55.492;13.506;2023-11-21T11:17:49;3.80;99.90
19781;DHT22;10050;55.492;13.506;2023-11-21T11:20:16;3.80;99.90
19781;DHT22;10050;55.492;13.506;2023-11-21T11:23:23;3.80;99.90
19781;DHT22;10050;55.492;13.506;2023-11-21T11:31:11;3.80;99.90
19781;DHT22;10050;55.492;13.506;2023-11-21T11:34:04;3.80;99.90
19781;DHT22;10050;55.492;13.506;2023-11-21T11:37:02;3.70;99.90
19781;DHT22;10050;55.492;13.506;2023-11-21T11:39:35;3.70;99.90
19781;DHT22;10050;55.492;13.506;2023-11-21T11:42:04;3.60;99.90
19781;DHT22;10050;55.492;13.506;2023-11-21T11:47:28;3.60;99.90
19781;DHT22;10050;55.492;13.506;2023-11-21T11:52:44;3.70;99.90
19781;DHT22;10050;55.492;13.506;2023-11-21T11:55:20;3.60;99.90
19781;DHT22;10050;55.492;13.506;2023-11-21T11:57:48;3.70;99.90
19781;DHT22;10050;55.492;13.506;2023-11-21T12:00:22;3.70;99.90
19781;DHT22;10050;55.492;13.506;2023-11-21T12:02:53;3.60;99.90
19781;DHT22;10050;55.492;13.506;2023-11-21T12:05:20;3.60;99.90
19781;DHT22;10050;55.492;13.506;2023-11-21T12:07:48;3.60;99.90
19781;DHT22;10050;55.492;13.506;2023-11-21T12:10:15;3.60;99.90
19781;DHT22;10050;55.492;13.506;2023-11-21T12:12:49;3.70;99.90
19781;DHT22;10050;55.492;13.506;2023-11-21T12:15:19;3.70;99.90
19781;DHT22;10050;55.492;13.506;2023-11-21T12:17:45;3.70;99.90
19781;DHT22;10050;55.492;13.506;2023-11-21T12:20:16;3.80;99.90
19781;DHT22;10050;55.492;13.506;2023-11-21T12:22:50;3.80;99.90
19781;DHT22;10050;55.492;13.506;2023-11-21T12:25:19;3.90;99.90
19781;DHT22;10050;55.492;13.506;2023-11-21T12:27:46;3.80;99.90
19781;DHT22;10050;55.492;13.506;2023-11-21T12:30:15;3.70;99.90
19781;DHT22;10050;55.492;13.506;2023-11-21T12:32:47;3.60;99.90
19781;DHT22;10050;55.492;13.506;2023-11-21T12:35:13;3.60;99.90
19781;DHT22;10050;55.492;13.506;2023-11-21T12:37:40;3.50;99.90
19781;DHT22;10050;55.492;13.506;2023-11-21T12:40:09;3.50;99.90
19781;DHT22;10050;55.492;13.506;2023-11-21T12:42:39;3.50;99.90
19781;DHT22;10050;55.492;13.506;2023-11-21T12:45:28;3.60;99.90
19781;DHT22;10050;55.492;13.506;2023-11-21T12:50:27;3.70;99.90
19781;DHT22;10050;55.492;13.506;2023-11-21T12:53:09;3.80;99.90
19781;DHT22;10050;55.492;13.506;2023-11-21T12:55:37;3.80;99.90
19781;DHT22;10050;55.492;13.506;2023-11-21T12:58:09;3.80;99.90
19781;DHT22;10050;55.492;13.506;2023-11-21T13:03:04;3.80;99.90
19781;DHT22;10050;55.492;13.506;2023-11-21T13:05:34;3.80;99.90
19781;DHT22;10050;55.492;13.506;2023-11-21T13:08:02;3.80;99.90
19781;DHT22;10050;55.492;13.506;2023-11-21T13:10:30;3.80;99.90
19781;DHT22;10050;55.492;13.506;2023-11-21T13:12:58;3.80;99.90
19781;DHT22;10050;55.492;13.506;2023-11-21T13:15:24;3.80;99.90
19781;DHT22;10050;55.492;13.506;2023-11-21T13:17:50;3.80;99.90
19781;DHT22;10050;55.492;13.506;2023-11-21T13:20:17;3.80;99.90
19781;DHT22;10050;55.492;13.506;2023-11-21T13:23:09;3.80;99.90
19781;DHT22;10050;55.492;13.506;2023-11-21T13:25:37;3.70;99.90
19781;DHT22;10050;55.492;13.506;2023-11-21T13:28:04;3.70;99.90
19781;DHT22;10050;55.492;13.506;2023-11-21T13:30:30;3.70;99.90
19781;DHT22;10050;55.492;13.506;2023-11-21T13:33:03;3.80;99.90
19781;DHT22;10050;55.492;13.506;2023-11-21T13:35:33;3.80;99.90
19781;DHT22;10050;55.492;13.506;2023-11-21T13:38:14;3.90;99.90
19781;DHT22;10050;55.492;13.506;2023-11-21T13:40:46;3.80;99.90
19781;DHT22;10050;55.492;13.506;2023-11-21T13:43:13;3.80;99.90
19781;DHT22;10050;55.492;13.506;2023-11-21T13:45:40;3.70;99.90
19781;DHT22;10050;55.492;13.506;2023-11-21T13:48:07;3.70;99.90
19781;DHT22;10050;55.492;13.506;2023-11-21T13:50:39;3.70;99.90
19781;DHT22;10050;55.492;13.506;2023-11-21T13:53:11;3.70;99.90
19781;DHT22;10050;55.492;13.506;2023-11-21T13:55:50;3.70;99.90
19781;DHT22;10050;55.492;13.506;2023-11-21T13:58:20;3.70;99.90
19781;DHT22;10050;55.492;13.506;2023-11-21T14:00:58;3.70;99.90
19781;DHT22;10050;55.492;13.506;2023-11-21T14:03:23;3.70;99.90
19781;DHT22;10050;55.492;13.506;2023-11-21T14:05:58;3.70;99.90
19781;DHT22;10050;55.492;13.506;2023-11-21T14:08:26;3.80;99.90
19781;DHT22;10050;55.492;13.506;2023-11-21T14:10:57;3.80;99.90
19781;DHT22;10050;55.492;13.506;2023-11-21T14:13:26;3.70;99.90
19781;DHT22;10050;55.492;13.506;2023-11-21T14:15:52;3.70;99.90
19781;DHT22;10050;55.492;13.506;2023-11-21T14:18:24;3.70;99.90
19781;DHT22;10050;55.492;13.506;2023-11-21T14:20:59;3.60;99.90
19781;DHT22;10050;55.492;13.506;2023-11-21T14:23:25;3.70;99.90
19781;DHT22;10050;55.492;13.506;2023-11-21T14:25:51;3.60;99.90
19781;DHT22;10050;55.492;13.506;2023-11-21T14:28:17;3.60;99.90
19781;DHT22;10050;55.492;13.506;2023-11-21T14:30:45;3.60;99.90
19781;DHT22;10050;55.492;13.506;2023-11-21T14:33:12;3.60;99.90
19781;DHT22;10050;55.492;13.506;2023-11-21T14:35:37;3.60;99.90
19781;DHT22;10050;55.492;13.506;2023-11-21T14:38:03;3.60;99.90
19781;DHT22;10050;55.492;13.506;2023-11-21T14:40:33;3.60;99.90
19781;DHT22;10050;55.492;13.506;2023-11-21T14:43:03;3.60;99.90
19781;DHT22;10050;55.492;13.506;2023-11-21T14:45:33;3.50;99.90
19781;DHT22;10050;55.492;13.506;2023-11-21T14:47:59;3.50;99.90
19781;DHT22;10050;55.492;13.506;2023-11-21T14:50:42;3.50;99.90
19781;DHT22;10050;55.492;13.506;2023-11-21T14:53:11;3.50;99.90
19781;DHT22;10050;55.492;13.506;2023-11-21T14:55:39;3.50;99.90
19781;DHT22;10050;55.492;13.506;2023-11-21T14:58:17;3.50;99.90
19781;DHT22;10050;55.492;13.506;2023-11-21T15:00:54;3.50;99.90
19781;DHT22;10050;55.492;13.506;2023-11-21T15:03:24;3.50;99.90
19781;DHT22;10050;55.492;13.506;2023-11-21T15:05:56;3.50;99.90
19781;DHT22;10050;55.492;13.506;2023-11-21T15:08:22;3.50;99.90
19781;DHT22;10050;55.492;13.506;2023-11-21T15:10:53;3.50;99.90
19781;DHT22;10050;55.492;13.506;2023-11-21T15:13:20;3.40;99.90
19781;DHT22;10050;55.492;13.506;2023-11-21T15:15:51;3.30;99.90
19781;DHT22;10050;55.492;13.506;2023-11-21T15:18:20;3.30;99.90
19781;DHT22;10050;55.492;13.506;2023-11-21T15:20:46;3.20;99.90
19781;DHT22;10050;55.492;13.506;2023-11-21T15:23:11;3.10;99.90
19781;DHT22;10050;55.492;13.506;2023-11-21T15:25:42;3.10;99.90
19781;DHT22;10050;55.492;13.506;2023-11-21T15:28:07;3.20;99.90
19781;DHT22;10050;55.492;13.506;2023-11-21T15:30:33;3.20;99.90
19781;DHT22;10050;55.492;13.506;2023-11-21T15:33:00;3.30;99.90
19781;DHT22;10050;55.492;13.506;2023-11-21T15:35:28;3.30;99.90
19781;DHT22;10050;55.492;13.506;2023-11-21T15:37:54;3.30;99.90
19781;DHT22;10050;55.492;13.506;2023-11-21T15:40:23;3.30;99.90
19781;DHT22;10050;55.492;13.506;2023-11-21T15:42:49;3.30;99.90
19781;DHT22;10050;55.492;13.506;2023-11-21T15:45:17;3.30;99.90
19781;DHT22;10050;55.492;13.506;2023-11-21T15:47:47;3.30;99.90
19781;DHT22;10050;55.492;13.506;2023-11-21T15:50:12;3.40;99.90